createdAt,value
2018-02-16T06:20:03.764Z,29.00
2018-02-16T06:22:29.949Z,26.03
2018-02-16T06:24:56.148Z,13.97
2018-02-16T06:27:22.329Z,23.53
2018-02-16T06:29:48.488Z,63.80
2018-02-16T06:32:14.644Z,41.97
2018-02-16T06:34:40.801Z,38.80
2018-02-16T06:37:06.980Z,32.23
2018-02-16T06:39:33.875Z,30.10
2018-02-16T06:42:00.053Z,20.87
2018-02-16T06:44:26.233Z,28.73
2018-02-16T06:46:52.396Z,32.37
2018-02-16T06:49:18.576Z,23.90
2018-02-16T06:51:45.481Z,28.63
2018-02-16T06:54:11.637Z,14.57
2018-02-16T06:56:37.820Z,16.90
2018-02-16T06:59:04.717Z,18.10
2018-02-16T07:01:30.951Z,12.27
2018-02-16T07:03:57.133Z,16.13
2018-02-16T07:06:23.301Z,8.10
2018-02-16T07:08:50.176Z,13.70
2018-02-16T07:11:16.356Z,9.40
2018-02-16T07:13:42.504Z,10.77
2018-02-16T07:16:08.696Z,11.53
2018-02-16T07:18:34.913Z,11.40
2018-02-16T07:21:01.833Z,9.87
2018-02-16T07:23:28.008Z,8.73
2018-02-16T07:25:54.892Z,9.67
2018-02-16T07:28:21.085Z,9.60
2018-02-16T07:30:47.233Z,7.43
2018-02-16T07:33:14.164Z,9.10
2018-02-16T07:35:40.323Z,6.13
2018-02-16T07:38:07.211Z,4.37
2018-02-16T07:40:33.405Z,6.30
2018-02-16T07:42:59.556Z,6.87
2018-02-16T07:45:25.717Z,8.20
2018-02-16T07:47:51.888Z,5.00
2018-02-16T07:50:18.064Z,8.33
2018-02-16T07:52:44.216Z,10.07
2018-02-16T07:55:11.162Z,6.57
2018-02-16T07:57:37.329Z,7.33
2018-02-16T08:00:03.494Z,7.33
2018-02-16T08:02:29.648Z,6.17
2018-02-16T08:04:55.820Z,6.87
2018-02-16T08:07:21.991Z,11.47
2018-02-16T08:09:48.187Z,7.93
2018-02-16T08:12:14.320Z,8.27
2018-02-16T08:14:40.496Z,7.80
2018-02-16T08:17:07.400Z,7.17
2018-02-16T08:19:33.580Z,7.60
2018-02-16T08:22:00.464Z,7.37
2018-02-16T08:24:26.657Z,6.43
2018-02-16T08:26:52.848Z,7.43
2018-02-16T08:29:19.025Z,10.87
2018-02-16T08:31:45.189Z,7.73
2018-02-16T08:34:12.105Z,6.70
2018-02-16T08:36:38.287Z,6.93
2018-02-16T08:39:05.176Z,6.93
2018-02-16T08:41:31.372Z,10.80
2018-02-16T08:43:57.533Z,8.43
2018-02-16T08:46:24.472Z,5.87
2018-02-16T08:48:50.637Z,7.37
2018-02-16T08:51:16.840Z,10.67
2018-02-16T08:53:43.020Z,5.00
2018-02-16T08:56:09.243Z,4.57
2018-02-16T08:58:35.360Z,7.50
2018-02-16T09:01:01.535Z,9.00
2018-02-16T09:03:27.696Z,6.90
2018-02-16T09:05:53.860Z,7.63
2018-02-16T09:08:20.029Z,6.43
2018-02-16T09:10:46.944Z,6.53
2018-02-16T09:13:13.096Z,6.10
2018-02-16T09:15:39.246Z,8.07
2018-02-16T09:18:05.395Z,11.37
2018-02-16T09:20:31.548Z,5.60
2018-02-16T09:22:58.485Z,7.73
2018-02-16T09:25:24.628Z,7.47
2018-02-16T09:27:50.844Z,5.23
2018-02-16T09:30:17.208Z,6.17
2018-02-16T09:32:43.358Z,7.53
2018-02-16T09:35:10.262Z,5.53
2018-02-16T09:37:36.981Z,6.93
2018-02-16T09:40:04.840Z,5.73
2018-02-16T09:42:30.998Z,8.03
2018-02-16T09:44:57.889Z,7.67
2018-02-16T09:47:24.096Z,10.10
2018-02-16T09:49:50.985Z,6.07
2018-02-16T09:52:17.148Z,7.37
2018-02-16T09:54:43.353Z,5.23
2018-02-16T09:57:09.532Z,6.60
2018-02-16T09:59:35.712Z,8.73
2018-02-16T10:02:08.887Z,6.73
2018-02-16T10:04:35.804Z,6.83
2018-02-16T10:07:01.960Z,8.13
2018-02-16T10:09:28.120Z,10.93
2018-02-16T10:11:55.752Z,6.63
2018-02-16T10:14:21.960Z,9.07
2018-02-16T10:16:48.848Z,6.70
2018-02-16T10:19:14.988Z,6.10
2018-02-16T10:21:41.197Z,7.70
2018-02-16T10:24:07.374Z,5.53
2018-02-16T10:26:33.548Z,5.97
2018-02-16T10:28:59.717Z,7.47
2018-02-16T10:31:25.884Z,6.90
2018-02-16T10:33:52.048Z,8.23
2018-02-16T10:36:18.224Z,5.33
2018-02-16T10:38:45.128Z,8.63
2018-02-16T10:41:11.293Z,5.17
2018-02-16T10:43:37.464Z,6.97
2018-02-16T10:46:04.357Z,7.03
2018-02-16T10:48:30.564Z,5.23
2018-02-16T10:50:56.713Z,6.33
2018-02-16T10:53:22.953Z,7.03
2018-02-16T10:55:49.105Z,5.60
2018-02-16T10:58:15.277Z,5.53
2018-02-16T11:00:47.438Z,4.77
2018-02-16T11:03:19.648Z,5.53
2018-02-16T11:05:51.852Z,5.83
2018-02-16T11:08:25.821Z,6.73
2018-02-16T11:10:51.992Z,6.17
2018-02-16T11:13:18.174Z,4.63
2018-02-16T11:15:44.372Z,6.33
2018-02-16T11:18:11.292Z,4.63
2018-02-16T11:20:37.436Z,4.40
2018-02-16T11:23:03.569Z,5.07
2018-02-16T11:25:29.756Z,5.93
2018-02-16T11:27:56.781Z,5.00
2018-02-16T11:30:22.940Z,6.47
2018-02-16T11:32:49.123Z,4.30
2018-02-16T11:35:15.306Z,4.50
2018-02-16T11:37:42.217Z,4.45
2018-02-16T11:40:08.460Z,6.80
2018-02-16T11:42:34.641Z,5.90
2018-02-16T11:45:00.845Z,4.83
2018-02-16T11:47:27.028Z,4.67
2018-02-16T11:49:53.157Z,4.67
2018-02-16T11:52:19.345Z,6.87
2018-02-16T11:54:45.496Z,6.17
2018-02-16T11:57:11.656Z,6.30
2018-02-16T11:59:37.852Z,6.47
2018-02-16T12:02:04.788Z,6.55
2018-02-16T12:04:30.957Z,4.23
2018-02-16T12:06:57.117Z,5.87
2018-02-16T12:09:23.289Z,4.33
2018-02-16T12:11:49.440Z,6.07
2018-02-16T12:14:15.616Z,4.40
2018-02-16T12:16:41.789Z,4.70
2018-02-16T12:19:07.953Z,3.70
2018-02-16T12:21:34.116Z,5.23
2018-02-16T12:24:01.056Z,5.22
2018-02-16T12:26:27.212Z,3.20
2018-02-16T12:28:54.134Z,3.73
2018-02-16T12:31:20.297Z,3.60
2018-02-16T12:33:47.208Z,4.23
2018-02-16T12:36:13.400Z,6.07
2018-02-16T12:38:40.297Z,6.30
2018-02-16T12:41:06.440Z,3.73
2018-02-16T12:43:32.616Z,7.03
2018-02-16T12:45:58.797Z,5.27
2018-02-16T12:48:24.976Z,4.37
2018-02-16T12:50:51.131Z,3.70
2018-02-16T12:53:18.052Z,4.60
2018-02-16T12:55:44.229Z,5.70
2018-02-16T12:58:10.392Z,3.60
2018-02-16T13:00:37.281Z,3.47
2018-02-16T13:03:03.484Z,3.05
2018-02-16T13:05:30.384Z,3.92
2018-02-16T13:07:56.560Z,3.42
2018-02-16T13:10:22.755Z,3.22
2018-02-16T13:12:48.918Z,3.30
2018-02-16T13:15:15.066Z,5.17
2018-02-16T13:17:41.261Z,4.60
2018-02-16T13:20:07.415Z,4.00
2018-02-16T13:22:33.584Z,4.50
2018-02-16T13:24:59.756Z,3.30
2018-02-16T13:27:26.729Z,3.53
2018-02-16T13:29:52.925Z,4.60
2018-02-16T13:32:19.110Z,3.30
2018-02-16T13:34:45.276Z,4.12
2018-02-16T13:37:11.469Z,6.57
2018-02-16T13:39:38.361Z,10.27
2018-02-16T13:42:04.557Z,5.72
2018-02-16T13:44:31.450Z,18.10
2018-02-16T13:46:57.637Z,21.45
2018-02-16T13:49:23.821Z,4.95
2018-02-16T13:51:49.968Z,9.88
2018-02-16T13:54:16.164Z,20.58
2018-02-16T13:56:43.081Z,9.07
2018-02-16T13:59:09.240Z,9.98
2018-02-16T14:01:35.393Z,14.57
2018-02-16T14:04:02.328Z,4.90
2018-02-16T14:06:28.497Z,10.57
2018-02-16T14:08:54.688Z,10.23
2018-02-16T14:11:20.865Z,7.25
2018-02-16T14:13:47.781Z,9.38
2018-02-16T14:16:13.963Z,8.32
2018-02-16T14:18:40.128Z,5.82
2018-02-16T14:21:07.057Z,9.10
2018-02-16T14:23:33.208Z,5.07
2018-02-16T14:26:00.156Z,11.35
2018-02-16T14:28:26.344Z,2.95
2018-02-16T14:30:52.505Z,4.43
2018-02-16T14:33:19.696Z,4.28
2018-02-16T14:35:45.856Z,3.67
2018-02-16T14:38:12.828Z,7.12
2018-02-16T14:40:39.022Z,4.05
2018-02-16T14:43:05.285Z,4.80
2018-02-16T14:45:32.204Z,3.42
2018-02-16T14:47:58.376Z,5.30
2018-02-16T14:50:24.737Z,7.05
2018-02-16T14:52:51.713Z,3.53
2018-02-16T14:55:17.868Z,3.72
2018-02-16T14:57:44.069Z,3.45
2018-02-16T15:00:10.968Z,6.65
2018-02-16T15:02:37.181Z,17.77
2018-02-16T15:05:03.342Z,9.82
2018-02-16T15:07:29.513Z,6.85
2018-02-16T15:09:57.145Z,15.27
2018-02-16T15:12:23.326Z,10.48
2018-02-16T15:14:49.552Z,10.38
2018-02-16T15:17:15.725Z,14.00
2018-02-16T15:19:41.924Z,9.75
2018-02-16T15:22:08.950Z,11.98
2018-02-16T15:24:35.144Z,14.90
2018-02-16T15:27:01.325Z,8.48
2018-02-16T15:29:27.581Z,9.68
2018-02-16T15:31:53.925Z,8.75
2018-02-16T15:34:20.104Z,12.20
2018-02-16T15:36:46.721Z,5.40
2018-02-16T15:39:12.933Z,6.95
2018-02-16T15:41:39.848Z,9.70
2018-02-16T15:44:06.033Z,10.77
2018-02-16T15:46:32.269Z,7.43
2018-02-16T15:48:59.615Z,4.12
2018-02-16T15:51:26.524Z,11.43
2018-02-16T15:53:52.926Z,10.20
2018-02-16T15:56:19.901Z,12.73
2018-02-16T15:58:46.100Z,5.65
2018-02-16T16:01:13.013Z,5.82
2018-02-16T16:03:39.181Z,7.53
2018-02-16T16:06:05.379Z,5.05
2018-02-16T16:08:31.573Z,3.65
2018-02-16T16:10:57.745Z,5.82
2018-02-16T16:13:24.754Z,4.53
2018-02-16T16:15:50.880Z,10.05
2018-02-16T16:18:17.033Z,8.98
2018-02-16T16:20:43.197Z,6.68
2018-02-16T16:23:09.396Z,2.83
2018-02-16T16:25:35.576Z,4.80
2018-02-16T16:28:01.723Z,3.22
2018-02-16T16:30:27.916Z,8.85
2018-02-16T16:32:54.080Z,4.97
2018-02-16T16:35:20.272Z,4.82
2018-02-16T16:37:46.424Z,3.58
2018-02-16T16:40:12.633Z,5.50
2018-02-16T16:42:39.557Z,4.50
2018-02-16T16:45:05.764Z,4.35
2018-02-16T16:47:31.926Z,3.72
2018-02-16T16:49:58.101Z,3.47
2018-02-16T16:52:25.012Z,4.65
2018-02-16T16:54:51.208Z,2.97
2018-02-16T16:57:18.124Z,3.97
2018-02-16T16:59:44.313Z,3.45
2018-02-16T17:02:10.528Z,4.15
2018-02-16T17:04:36.704Z,5.53
2018-02-16T17:07:02.873Z,3.08
2018-02-16T17:09:29.030Z,3.78
2018-02-16T17:11:55.200Z,3.17
2018-02-16T17:14:22.109Z,4.25
2018-02-16T17:16:48.288Z,3.58
2018-02-16T17:19:15.200Z,10.75
2018-02-16T17:21:41.336Z,4.37
2018-02-16T17:24:07.540Z,4.68
2018-02-16T17:26:33.864Z,4.10
2018-02-16T17:29:00.768Z,6.05
2018-02-16T17:31:26.952Z,5.10
2018-02-16T17:33:53.860Z,5.07
2018-02-16T17:36:20.074Z,3.60
2018-02-16T17:38:46.261Z,4.60
2018-02-16T17:41:12.469Z,7.05
2018-02-16T17:43:38.657Z,5.90
2018-02-16T17:46:04.852Z,5.78
2018-02-16T17:48:31.048Z,5.25
2018-02-16T17:50:57.212Z,5.53
2018-02-16T17:53:23.468Z,6.60
2018-02-16T17:55:49.633Z,3.85
2018-02-16T17:58:15.864Z,3.62
2018-02-16T18:00:42.073Z,4.20
2018-02-16T18:03:08.224Z,5.37
2018-02-16T18:05:34.629Z,3.83
2018-02-16T18:08:00.815Z,5.93
2018-02-16T18:10:27.236Z,4.57
2018-02-16T18:12:53.421Z,4.05
2018-02-16T18:15:19.752Z,4.00
2018-02-16T18:17:46.067Z,5.47
2018-02-16T18:20:12.270Z,4.25
2018-02-16T18:22:38.550Z,4.57
2018-02-16T18:25:04.908Z,4.05
2018-02-16T18:27:31.072Z,4.55
2018-02-16T18:29:57.680Z,6.40
2018-02-16T18:32:24.022Z,5.32
2018-02-16T18:34:51.037Z,6.32
2018-02-16T18:37:17.940Z,5.07
2018-02-16T18:39:44.271Z,5.37
2018-02-16T18:42:11.213Z,3.53
2018-02-16T18:44:38.522Z,6.57
2018-02-16T18:47:04.708Z,6.25
2018-02-16T18:49:30.904Z,3.92
2018-02-16T18:51:57.079Z,3.33
2018-02-16T18:54:23.428Z,4.62
2018-02-16T18:56:49.756Z,3.03
2018-02-16T18:59:15.928Z,5.78
2018-02-16T19:01:42.142Z,3.70
2018-02-16T19:04:09.173Z,4.12
2018-02-16T19:06:35.513Z,4.55
2018-02-16T19:09:01.673Z,4.03
2018-02-16T19:11:28.053Z,3.37
2018-02-16T19:13:55.053Z,3.10
2018-02-16T19:16:21.440Z,3.55
2018-02-16T19:18:47.784Z,2.67
2018-02-16T19:21:13.943Z,3.28
2018-02-16T19:23:41.161Z,3.12
2018-02-16T19:26:07.333Z,3.37
2018-02-16T19:28:33.680Z,3.42
2018-02-16T19:31:00.836Z,4.95
2018-02-16T19:33:27.012Z,3.55
2018-02-16T19:35:53.228Z,3.37
2018-02-16T19:38:20.124Z,3.10
2018-02-16T19:40:46.436Z,4.40
2018-02-16T19:43:12.604Z,4.47
2018-02-16T19:45:39.027Z,3.67
2018-02-16T19:48:05.249Z,3.03
2018-02-16T19:50:32.189Z,3.35
2018-02-16T19:52:58.364Z,3.45
2018-02-16T19:55:24.560Z,2.90
2018-02-16T19:57:50.740Z,3.10
2018-02-16T20:00:17.108Z,3.35
2018-02-16T20:02:43.301Z,3.72
2018-02-16T20:05:10.333Z,4.18
2018-02-16T20:07:36.659Z,4.82
2018-02-16T20:10:02.987Z,3.37
2018-02-16T20:12:29.360Z,2.87
2018-02-16T20:14:55.517Z,3.25
2018-02-16T20:17:21.677Z,4.22
2018-02-16T20:19:48.805Z,3.00
2018-02-16T20:22:15.200Z,3.62
2018-02-16T20:24:41.456Z,3.75
2018-02-16T20:27:07.644Z,4.18
2018-02-16T20:29:33.853Z,3.20
2018-02-16T20:32:00.053Z,3.05
2018-02-16T20:34:26.948Z,3.50
2018-02-16T20:36:53.201Z,4.22
2018-02-16T20:39:19.444Z,3.97
2018-02-16T20:41:45.640Z,3.45
2018-02-16T20:44:11.853Z,3.47
2018-02-16T20:46:38.789Z,5.05
2018-02-16T20:49:04.969Z,6.18
2018-02-16T20:51:31.141Z,4.07
2018-02-16T20:53:57.357Z,5.43
2018-02-16T21:06:09.497Z,14.83
2018-02-16T21:08:35.717Z,12.32
2018-02-16T21:11:01.885Z,12.48
2018-02-16T21:13:28.061Z,14.93
2018-02-16T21:15:54.196Z,11.73
2018-02-16T21:18:20.364Z,14.77
2018-02-16T21:20:47.255Z,13.23
2018-02-16T21:23:13.412Z,12.43
2018-02-16T21:25:39.596Z,12.52
2018-02-16T21:28:06.534Z,7.00
2018-02-16T21:30:32.752Z,9.90
2018-02-16T21:32:58.936Z,7.07
2018-02-16T21:35:25.860Z,7.15
2018-02-16T21:37:52.048Z,7.37
2018-02-16T21:40:18.220Z,5.07
2018-02-16T21:42:44.380Z,7.35
2018-02-16T21:45:10.563Z,8.23
2018-02-16T21:47:36.720Z,8.73
2018-02-16T21:50:02.946Z,7.82
2018-02-16T21:52:29.096Z,6.32
2018-02-16T21:54:55.280Z,14.25
2018-02-16T21:57:21.431Z,6.50
2018-02-16T21:59:47.593Z,13.38
2018-02-16T22:02:13.752Z,9.90
